Terminal Aerodrome Forecast
Issued by NWS

Current Version | Previous Version | Text Only | Print | Product List | Glossary Off
Versions: 1 2 3 4 5 6 7 8 9 10 11 12 13 14 15 16 17 18 19 20 21 22 23 24 25 26 27 28 29 30 31 32 33 34 35 36 37 38 39 40 41 42 43

912
FTUS41 KRNK 191522 AAA
TAFLWB
TAF AMD
KLWB 191522Z 1915/2012 19004KT P6SM OVC007
     FM191800 VRB03KT P6SM SCT007 OVC015
     FM191900 23004KT P6SM SCT250
     FM200100 00000KT P6SM BKN080
     FM200300 00000KT P6SM VCSH OVC080
     FM200700 VRB03KT P6SM VCSH OVC015
     FM200800 VRB03KT 6SM -RA BR OVC015=

USA.gov is the U.S. government's official web portal to all federal, state and local government web resources and services.